Terminal Aerodrome Forecast
Issued by NWS Grand Forks, ND

Home | Current Version | Previous Version | Graphics & Text | Print | Product List | Glossary On
Versions: 1 2 3 4 5 6 7 8 9 10 11 12 13 14 15 16 17 18 19
000
FTUS43 KFGF 202336
TAFFAR
TAF
KFAR 202336Z 2100/2124 29022G32KT P6SM FEW250
     FM210300 31024G34KT P6SM SCT040
     FM210700 32022G31KT P6SM SCT025 BKN035
     FM211600 33020G30KT P6SM SCT035=

USA.gov is the U.S. government's official web portal to all federal, state and local government web resources and services.